Terminal Aerodrome Forecast
Issued by NWS

Home | Current Version | Previous Version | Text Only | Print | Product List | Glossary On
Versions: 1 2 3 4 5 6 7 8 9 10 11 12 13 14 15
000
FTUS43 KPAH 181140
TAFCGI
TAF
KCGI 181140Z 1812/1912 20012G18KT P6SM SKC
     FM181400 23018G29KT P6SM SCT035
     FM181800 26019G29KT P6SM FEW050
     FM182300 31019G29KT P6SM BKN050
     FM190500 31012G19KT P6SM SCT040=

USA.gov is the U.S. government's official web portal to all federal, state and local government web resources and services.